createdAt,value
2023-01-13T00:03:30.271Z,2
2023-01-13T00:08:53.026Z,2.1
2023-01-13T00:14:00.052Z,2.1
2023-01-13T00:19:21.940Z,2.1
2023-01-13T00:24:44.605Z,2.1
2023-01-13T00:30:07.330Z,2.1
2023-01-13T00:35:29.751Z,2.1
2023-01-13T00:40:51.906Z,2.1
2023-01-13T00:46:14.463Z,2.1
2023-01-13T00:51:36.541Z,2.1
2023-01-13T00:57:14.099Z,2.1
2023-01-13T01:02:37.874Z,2.2
2023-01-13T01:07:59.369Z,2.2
2023-01-13T01:13:05.909Z,2.2
2023-01-13T01:18:28.041Z,2.1
2023-01-13T01:23:50.047Z,2.2
2023-01-13T01:29:12.551Z,2.2
2023-01-13T01:34:35.172Z,2.2
2023-01-13T01:39:41.169Z,2.1
2023-01-13T01:45:05.336Z,2.2
2023-01-13T01:50:27.071Z,2.2
2023-01-13T01:55:49.694Z,2.2
2023-01-13T02:00:56.135Z,2.2
2023-01-13T02:06:19.386Z,2.2
2023-01-13T02:11:41.297Z,2.1
2023-01-13T02:17:04.346Z,2.1
2023-01-13T02:22:26.937Z,2.1
2023-01-13T02:27:48.930Z,2.1
2023-01-13T02:33:11.691Z,2.1
2023-01-13T02:38:18.427Z,2.1
2023-01-13T02:43:40.630Z,2.1
2023-01-13T02:49:02.249Z,2.1
2023-01-13T02:54:08.618Z,2.1
2023-01-13T02:59:15.287Z,2.1
2023-01-13T03:04:23.868Z,2.1
2023-01-13T03:09:45.630Z,2.1
2023-01-13T03:14:52.214Z,2.1
2023-01-13T03:20:14.445Z,2.1
2023-01-13T03:25:35.981Z,2.1
2023-01-13T03:30:42.491Z,2.1
2023-01-13T03:36:04.742Z,2.1
2023-01-13T03:41:11.856Z,2.1
2023-01-13T03:46:02.609Z,2.1
2023-01-13T03:51:10.057Z,2.1
2023-01-13T03:56:17.218Z,2.1
2023-01-13T04:01:24.698Z,2.1
2023-01-13T04:06:17.225Z,2.1
2023-01-13T04:11:39.675Z,2.1
2023-01-13T04:16:31.130Z,2.1
2023-01-13T04:21:38.489Z,2
2023-01-13T04:26:46.013Z,2.1
2023-01-13T04:32:09.073Z,2.1
2023-01-13T04:42:38.768Z,2.1
2023-01-13T04:47:46.087Z,2.1
2023-01-13T04:53:08.821Z,2.1
2023-01-13T04:58:31.395Z,2.1
2023-01-13T05:03:54.266Z,2.1
2023-01-13T05:09:17.402Z,2.1
2023-01-13T05:14:41.110Z,2
2023-01-13T05:20:06.532Z,2.1
2023-01-13T05:25:28.907Z,2
2023-01-13T05:30:51.832Z,2
2023-01-13T05:36:14.545Z,2
2023-01-13T05:41:37.141Z,2.1
2023-01-13T05:46:59.271Z,2
2023-01-13T05:52:21.358Z,2
2023-01-13T05:57:44.443Z,2
2023-01-13T06:03:07.443Z,2
2023-01-13T06:08:29.720Z,2
2023-01-13T06:13:52.685Z,2.1
2023-01-13T06:18:44.375Z,2.1
2023-01-13T06:24:09.930Z,2.1
2023-01-13T06:29:32.647Z,2.2
2023-01-13T06:34:55.017Z,2.3
2023-01-13T06:40:16.977Z,2.3
2023-01-13T06:45:40.114Z,2.4
2023-01-13T06:51:06.290Z,2.6
2023-01-13T06:56:29.708Z,2.8
2023-01-13T07:01:37.505Z,2.9
2023-01-13T07:07:00.378Z,3.1
2023-01-13T07:12:22.948Z,3.4
2023-01-13T07:17:46.199Z,3.7
2023-01-13T07:23:08.493Z,4.1
2023-01-13T07:28:30.990Z,4.6
2023-01-13T07:33:54.306Z,5.4
2023-01-13T07:39:16.323Z,6.2
2023-01-13T07:44:39.249Z,7.1
2023-01-13T07:50:03.103Z,8
2023-01-13T07:55:31.782Z,9.1
2023-01-13T08:00:54.657Z,10.1
2023-01-13T08:06:18.815Z,11
2023-01-13T08:11:25.466Z,11.8
2023-01-13T08:16:54.911Z,12.6
2023-01-13T08:22:17.826Z,13.5
2023-01-13T08:27:40.415Z,14.4
2023-01-13T08:33:03.738Z,15.5
2023-01-13T08:38:26.820Z,16.8
2023-01-13T08:43:49.503Z,18.3
2023-01-13T08:49:12.961Z,19.6
2023-01-13T08:54:35.462Z,20.7
2023-01-13T09:00:16.480Z,21.8
2023-01-13T09:05:40.632Z,22.6
2023-01-13T09:11:03.204Z,22.7
2023-01-13T09:16:26.382Z,22.8
2023-01-13T09:21:49.146Z,22.9
2023-01-13T09:27:11.931Z,22.9
2023-01-13T09:32:35.306Z,23.1
2023-01-13T09:37:58.437Z,22.9
2023-01-13T09:43:20.073Z,22.4
2023-01-13T09:48:27.547Z,22.1
2023-01-13T09:53:50.160Z,21.9
2023-01-13T09:58:57.276Z,21.9
2023-01-13T10:04:20.509Z,22.7
2023-01-13T10:09:43.777Z,23.9
2023-01-13T10:15:06.221Z,24.7
2023-01-13T10:20:13.634Z,24.4
2023-01-13T10:25:36.805Z,24.1
2023-01-13T10:30:59.616Z,23.5
2023-01-13T10:36:07.011Z,23.6
2023-01-13T10:41:14.948Z,24.1
2023-01-13T10:46:38.223Z,24.8
2023-01-13T10:52:00.378Z,24.5
2023-01-13T10:57:23.638Z,24
2023-01-13T11:02:58.969Z,23.3
2023-01-13T11:08:21.863Z,22.7
2023-01-13T11:13:45.131Z,21.9
2023-01-13T11:19:14.124Z,21.3
2023-01-13T11:24:36.417Z,20.4
2023-01-13T11:29:58.537Z,19.6
2023-01-13T11:35:24.407Z,18.8
2023-01-13T11:40:47.169Z,18.1
2023-01-13T11:46:10.242Z,17.4
2023-01-13T11:51:33.491Z,16.9
2023-01-13T11:56:56.790Z,16.4
2023-01-13T12:02:01.687Z,16.2
2023-01-13T12:07:24.351Z,16.2
2023-01-13T12:12:50.337Z,16.4
2023-01-13T12:18:13.701Z,16.9
2023-01-13T12:23:36.947Z,18.3
2023-01-13T12:29:00.468Z,20.3
2023-01-13T12:34:23.372Z,20.6
2023-01-13T12:39:46.799Z,20.1
2023-01-13T12:45:09.668Z,19.6
2023-01-13T12:50:32.901Z,19.1
2023-01-13T12:55:56.074Z,18.9
2023-01-13T13:01:18.970Z,18.5
2023-01-13T13:06:45.723Z,18.1
2023-01-13T13:12:08.930Z,17.8
2023-01-13T13:17:31.645Z,17.3
2023-01-13T13:22:54.600Z,16.9
2023-01-13T13:28:17.397Z,16.4
2023-01-13T13:33:39.797Z,16
2023-01-13T13:38:46.624Z,15.6
2023-01-13T13:44:13.286Z,15
2023-01-13T13:49:36.881Z,14.4
2023-01-13T13:54:59.852Z,13.9
2023-01-13T14:00:22.615Z,13.3
2023-01-13T14:05:46.693Z,12.8
2023-01-13T14:11:09.837Z,12.3
2023-01-13T14:16:32.689Z,11.8
2023-01-13T14:21:55.711Z,11.3
2023-01-13T14:27:18.632Z,10.9
2023-01-13T14:32:26.290Z,10.5
2023-01-13T14:38:15.761Z,10.1
2023-01-13T14:43:39.386Z,9.6
2023-01-13T14:48:47.251Z,9.2
2023-01-13T14:54:11.738Z,8.9
2023-01-13T14:59:34.540Z,8.6
2023-01-13T15:04:57.998Z,8.2
2023-01-13T15:10:20.637Z,7.8
2023-01-13T15:15:38.434Z,7.6
2023-01-13T15:20:44.968Z,7.3
2023-01-13T15:26:07.948Z,7.1
2023-01-13T15:31:30.834Z,6.9
2023-01-13T15:36:53.399Z,6.6
2023-01-13T15:42:16.510Z,6.4
2023-01-13T15:47:23.552Z,6.3
2023-01-13T15:52:52.602Z,6.1
2023-01-13T15:57:59.305Z,5.9
2023-01-13T16:03:21.657Z,5.8
2023-01-13T16:08:45.980Z,5.7
2023-01-13T16:14:09.746Z,5.6
2023-01-13T16:19:32.291Z,5.4
2023-01-13T16:24:54.569Z,5.4
2023-01-13T16:30:17.556Z,5.3
2023-01-13T16:35:24.819Z,5.2
2023-01-13T16:41:17.108Z,5.1
2023-01-13T16:46:40.315Z,5.1
2023-01-13T16:52:06.318Z,4.9
2023-01-13T16:57:13.648Z,4.9
2023-01-13T17:02:37.770Z,4.8
2023-01-13T17:07:44.311Z,4.8
2023-01-13T17:12:51.140Z,4.8
2023-01-13T17:18:36.831Z,4.7
2023-01-13T17:24:04.200Z,4.7
2023-01-13T17:29:11.379Z,4.6
2023-01-13T17:34:33.835Z,4.6
2023-01-13T17:39:57.075Z,4.6
2023-01-13T17:45:20.293Z,4.5
2023-01-13T17:50:12.592Z,4.5
2023-01-13T17:55:34.856Z,4.4
2023-01-13T18:00:58.769Z,4.4
2023-01-13T18:06:07.727Z,4.4
2023-01-13T18:11:31.230Z,4.4
2023-01-13T18:16:57.249Z,4.3
2023-01-13T18:22:23.193Z,4.3
2023-01-13T18:27:52.690Z,4.3
2023-01-13T18:33:17.745Z,4.2
2023-01-13T18:38:18.780Z,4.2
2023-01-13T18:43:30.458Z,4.1
2023-01-13T18:48:56.586Z,4.1
2023-01-13T18:54:23.196Z,4.1
2023-01-13T18:59:51.223Z,4.1
2023-01-13T19:05:18.364Z,4.1
2023-01-13T19:10:47.079Z,4
2023-01-13T19:16:18.194Z,4
2023-01-13T19:21:49.704Z,4
2023-01-13T19:27:16.871Z,4
2023-01-13T19:32:49.399Z,4
2023-01-13T19:38:00.792Z,3.9
2023-01-13T19:43:31.074Z,3.9
2023-01-13T19:48:45.042Z,3.9
2023-01-13T19:54:14.318Z,3.8
2023-01-13T19:59:43.024Z,3.8
2023-01-13T20:05:11.592Z,3.8
2023-01-13T20:10:39.012Z,3.7
2023-01-13T20:16:09.686Z,3.6
2023-01-13T20:21:23.480Z,3.6
2023-01-13T20:26:54.736Z,3.5
2023-01-13T20:32:10.268Z,3.4
2023-01-13T20:37:38.948Z,3.3
2023-01-13T20:43:08.119Z,3.2
2023-01-13T20:48:33.955Z,3.1
2023-01-13T20:54:00.792Z,2.9
2023-01-13T20:59:10.074Z,2.8
2023-01-13T21:04:20.818Z,2.7
2023-01-13T21:09:44.405Z,2.6
2023-01-13T21:15:08.324Z,2.4
2023-01-13T21:20:31.248Z,2.4
2023-01-13T21:25:39.021Z,2.3
2023-01-13T21:30:31.145Z,2.3
2023-01-13T21:35:38.448Z,2.3
2023-01-13T21:41:00.468Z,2.3
2023-01-13T21:46:24.151Z,2.3
2023-01-13T21:51:31.112Z,2.2
2023-01-13T21:56:53.876Z,2.1
2023-01-13T22:02:57.710Z,2.1
2023-01-13T22:08:04.636Z,2
2023-01-13T22:13:16.362Z,1.9
2023-01-13T22:18:23.425Z,1.8
2023-01-13T22:23:47.599Z,1.7
2023-01-13T22:29:09.851Z,1.6
2023-01-13T22:34:32.579Z,1.4
2023-01-13T22:39:39.653Z,1.3
2023-01-13T22:45:02.132Z,1.1
2023-01-13T22:50:24.155Z,0.8
2023-01-13T22:55:46.028Z,0.7
2023-01-13T23:00:44.445Z,0.4
2023-01-13T23:05:52.533Z,0.3
2023-01-13T23:11:14.927Z,0.2
2023-01-13T23:16:37.623Z,0
2023-01-13T23:22:00.163Z,-0.1
2023-01-13T23:27:25.148Z,-0.2
2023-01-13T23:32:32.489Z,-0.3
2023-01-13T23:37:54.744Z,-0.4
2023-01-13T23:43:17.415Z,-0.6
2023-01-13T23:48:24.012Z,-0.6
2023-01-13T23:53:30.888Z,-0.7
2023-01-13T23:58:53.254Z,-0.7
